Time;durP1;ratioP1;P1;durP2;ratioP2;P2;SDS_P1;SDS_P2;PMS_P1;PMS_P2;Temp;Humidity;BMP_temperature;BMP_pressure;BME280_temperature;BME280_humidity;BME280_pressure;Samples;Min_cycle;Max_cycle;Signal;HPM_P1;HPM_P2
2023/09/11 00:01:49;;;;;;;6.13;2.00;;;;;;;16.24;100.00;101223.97;5070735;28;20032;-73
2023/09/11 00:04:15;;;;;;;2.78;1.45;;;;;;;16.28;100.00;101226.34;5070993;28;20040;-73
2023/09/11 00:06:40;;;;;;;4.57;1.85;;;;;;;16.71;100.00;101292.66;5069875;28;20048;-73
2023/09/11 00:09:05;;;;;;;4.32;1.80;;;;;;;16.34;100.00;101284.41;5071087;28;20033;-72
2023/09/11 00:11:31;;;;;;;6.00;2.10;;;;;;;16.46;100.00;101296.81;5070896;28;20044;-72
2023/09/11 00:13:56;;;;;;;4.32;1.90;;;;;;;16.31;100.00;101317.84;5071198;28;20024;-72
2023/09/11 00:16:22;;;;;;;5.40;1.73;;;;;;;16.40;100.00;101313.25;5069523;28;20035;-72
2023/09/11 00:18:47;;;;;;;2.33;1.50;;;;;;;16.39;100.00;101254.28;5069812;28;20486;-74
2023/09/11 00:21:13;;;;;;;6.18;1.88;;;;;;;15.81;100.00;101262.88;5070975;28;20029;-72
2023/09/11 00:23:38;;;;;;;7.63;2.03;;;;;;;15.92;100.00;101270.25;5069393;28;20190;-70
2023/09/11 00:26:03;;;;;;;5.88;2.05;;;;;;;15.86;100.00;101285.81;5071059;28;20024;-71
2023/09/11 00:28:29;;;;;;;5.30;2.17;;;;;;;16.37;100.00;101331.34;5052699;28;20459;-72
2023/09/11 00:31:00;;;;;;;3.88;1.52;;;;;;;16.56;100.00;101344.47;5070677;28;20032;-72
2023/09/11 00:33:26;;;;;;;;;;;;;;;16.65;100.00;101367.31;5069803;28;20596;-70
2023/09/11 00:35:51;;;;;;;3.97;1.60;;;;;;;16.22;100.00;101326.63;5069303;28;19916;-72
2023/09/11 00:38:17;;;;;;;4.00;1.67;;;;;;;16.52;100.00;101383.97;5077773;28;20029;-69
2023/09/11 00:40:42;;;;;;;6.35;1.67;;;;;;;16.22;100.00;101344.59;5063030;28;20037;-71
2023/09/11 00:43:08;;;;;;;3.92;1.60;;;;;;;16.69;100.00;101396.31;5050779;28;20037;-72
2023/09/11 00:45:35;;;;;;;4.90;1.88;;;;;;;16.69;100.00;101420.28;5050446;28;20028;-72
2023/09/11 00:48:01;;;;;;;6.93;2.17;;;;;;;16.39;100.00;101431.41;5050559;28;20018;-73
2023/09/11 00:50:26;;;;;;;4.35;1.70;;;;;;;15.94;100.00;101438.66;5050375;28;20380;-71
2023/09/11 00:52:52;;;;;;;4.00;2.00;;;;;;;15.87;100.00;101419.16;5051805;28;20060;-71
2023/09/11 00:55:19;;;;;;;4.50;1.80;;;;;;;15.58;100.00;101445.56;5052826;28;20033;-70
2023/09/11 00:57:45;;;;;;;3.50;2.00;;;;;;;15.28;100.00;101360.84;5057804;28;20028;-72
2023/09/11 01:00:12;;;;;;;3.67;1.85;;;;;;;15.11;100.00;101350.19;5074460;28;20474;-71
2023/09/11 01:02:38;;;;;;;7.60;2.05;;;;;;;15.22;100.00;101356.72;5055379;28;20033;-70
2023/09/11 01:05:07;;;;;;;4.82;2.40;;;;;;;15.39;100.00;101366.56;5056007;28;20391;-70
2023/09/11 01:07:33;;;;;;;4.32;2.17;;;;;;;15.75;100.00;101428.91;5073894;28;20111;-71
2023/09/11 01:09:59;;;;;;;4.63;1.88;;;;;;;15.57;100.00;101430.19;5074274;28;20020;-71
2023/09/11 01:12:25;;;;;;;5.60;2.10;;;;;;;15.32;100.00;101373.56;5055652;28;20082;-70
2023/09/11 01:14:50;;;;;;;3.28;2.00;;;;;;;15.44;100.00;101378.41;5074321;28;20368;-71
2023/09/11 01:17:33;;;;;;;8.10;2.17;;;;;;;15.12;100.00;101387.72;5073843;28;20028;-71
2023/09/11 01:20:10;;;;;;;3.30;2.00;;;;;;;15.66;100.00;101465.88;5073637;28;20033;-71
2023/09/11 01:23:00;;;;;;;7.00;2.03;;;;;;;15.66;100.00;101465.88;5073911;28;20028;-71
2023/09/11 01:26:03;;;;;;;6.05;2.00;;;;;;;15.88;100.00;101467.03;5073775;28;20098;-70
2023/09/11 01:28:40;;;;;;;5.30;1.65;;;;;;;15.80;100.00;101460.41;5073251;28;20020;-71
2023/09/11 01:31:07;;;;;;;3.45;1.70;;;;;;;15.59;100.00;101383.13;5055653;28;20035;-71
2023/09/11 01:33:33;;;;;;;6.40;2.00;;;;;;;15.61;100.00;101463.44;5073069;28;20033;-72
2023/09/11 01:35:58;;;;;;;4.20;1.85;;;;;;;14.92;100.00;101365.16;5073703;28;20094;-71
2023/09/11 01:38:24;;;;;;;3.78;1.77;;;;;;;15.02;100.00;101410.16;5073048;28;20486;-70
2023/09/11 01:40:53;;;;;;;5.22;2.00;;;;;;;15.31;100.00;101435.13;5073193;28;20457;-70
2023/09/11 01:43:21;;;;;;;5.50;1.98;;;;;;;15.13;100.00;101422.72;5073663;28;20024;-70
2023/09/11 01:45:48;;;;;;;4.63;1.98;;;;;;;15.28;100.00;101466.78;5073027;28;20066;-71
2023/09/11 01:48:14;;;;;;;3.67;1.88;;;;;;;15.20;100.00;101460.97;5073281;28;20467;-71
2023/09/11 01:50:41;;;;;;;7.75;2.00;;;;;;;15.11;100.00;101461.19;5073138;28;20027;-70
2023/09/11 01:53:07;;;;;;;2.95;1.92;;;;;;;15.35;100.00;101463.16;5073507;28;20406;-70
2023/09/11 01:55:34;;;;;;;4.75;1.95;;;;;;;15.58;100.00;101491.72;5073010;28;20085;-71
2023/09/11 01:58:00;;;;;;;6.03;2.00;;;;;;;15.52;100.00;101491.88;5073291;28;20021;-71
2023/09/11 02:00:25;;;;;;;3.63;1.77;;;;;;;15.40;100.00;101481.88;5072536;28;20499;-71
2023/09/11 02:02:55;;;;;;;3.80;1.77;;;;;;;15.11;100.00;101429.59;5072841;28;20396;-71
2023/09/11 02:05:20;;;;;;;5.68;1.90;;;;;;;15.04;100.00;101466.47;5071935;28;20040;-71
2023/09/11 02:07:46;;;;;;;3.97;1.70;;;;;;;15.53;100.00;101488.41;5073994;28;20028;-71
2023/09/11 02:10:11;;;;;;;4.38;2.03;;;;;;;14.95;100.00;101441.94;5075541;28;20198;-71
2023/09/11 02:12:37;;;;;;;3.83;1.73;;;;;;;15.26;100.00;101550.53;5073747;28;20032;-71
2023/09/11 02:15:03;;;;;;;5.22;1.90;;;;;;;15.11;100.00;101478.28;5054615;28;20036;-71
2023/09/11 02:17:29;;;;;;;5.32;2.10;;;;;;;15.31;100.00;101474.38;5072924;28;20406;-71
2023/09/11 02:19:54;;;;;;;3.20;2.25;;;;;;;15.31;100.00;101528.19;5071649;28;20033;-71
2023/09/11 02:22:20;;;;;;;4.95;2.05;;;;;;;15.15;100.00;101460.22;5072251;28;20036;-70
2023/09/11 02:24:45;;;;;;;4.88;2.05;;;;;;;15.46;100.00;101532.16;5072133;28;20189;-71
2023/09/11 02:27:10;;;;;;;5.45;1.98;;;;;;;15.29;100.00;101478.69;5072470;28;20035;-72
2023/09/11 02:29:36;;;;;;;5.22;2.10;;;;;;;15.48;100.00;101497.94;5072502;28;20032;-71
2023/09/11 02:32:03;;;;;;;7.25;2.17;;;;;;;14.78;100.00;101456.78;5077443;28;20037;-71
2023/09/11 02:34:28;;;;;;;4.45;1.80;;;;;;;15.14;100.00;101484.19;5072735;28;20024;-71
2023/09/11 02:36:54;;;;;;;5.93;2.15;;;;;;;14.94;100.00;101424.00;5072078;28;20422;-71
2023/09/11 02:39:19;;;;;;;5.80;2.05;;;;;;;14.98;100.00;101454.66;5072266;28;20020;-70
2023/09/11 02:41:44;;;;;;;6.18;2.38;;;;;;;15.47;100.00;101465.47;5072459;28;20024;-71
2023/09/11 02:44:10;;;;;;;5.38;2.30;;;;;;;15.38;100.00;101450.31;5071810;28;20063;-71
2023/09/11 02:46:35;;;;;;;7.05;2.50;;;;;;;15.14;100.00;101406.47;5054463;28;20484;-72
2023/09/11 02:49:01;;;;;;;5.03;2.30;;;;;;;14.78;100.00;101441.44;5071954;28;20029;-72
2023/09/11 02:51:28;;;;;;;4.10;2.05;;;;;;;14.98;100.00;101382.94;5072161;28;20043;-72
2023/09/11 02:53:54;;;;;;;6.50;2.20;;;;;;;15.08;100.00;101448.44;5071913;28;20025;-71
2023/09/11 02:56:20;;;;;;;6.85;2.28;;;;;;;15.50;100.00;101449.19;5072329;28;20032;-72
2023/09/11 02:58:45;;;;;;;4.18;2.30;;;;;;;14.64;100.00;101338.47;5071879;28;20089;-72
2023/09/11 03:01:10;;;;;;;6.28;2.20;;;;;;;14.79;100.00;101404.72;5071866;28;20059;-71
2023/09/11 03:03:36;;;;;;;5.63;2.50;;;;;;;14.51;100.00;101394.25;5070181;28;20028;-72
2023/09/11 03:06:02;;;;;;;8.00;2.40;;;;;;;14.95;100.00;101459.84;5086173;28;20025;-70
2023/09/11 03:08:28;;;;;;;8.35;2.60;;;;;;;15.08;100.00;101466.38;5071708;28;20032;-71
2023/09/11 03:10:54;;;;;;;6.93;2.42;;;;;;;14.15;100.00;101361.69;5070270;28;20036;-71
2023/09/11 03:13:20;;;;;;;6.95;2.30;;;;;;;14.73;100.00;101420.22;5070854;28;20093;-71
2023/09/11 03:15:45;;;;;;;4.57;2.30;;;;;;;14.65;100.00;101455.38;5071492;28;20055;-72
2023/09/11 03:18:11;;;;;;;10.18;4.13;;;;;;;14.65;100.00;101411.88;5053495;28;20395;-70
2023/09/11 03:20:38;;;;;;;5.50;2.67;;;;;;;14.74;100.00;101458.59;5071750;28;20033;-70
2023/09/11 03:23:03;;;;;;;4.70;2.60;;;;;;;14.36;100.00;101424.44;5053823;28;20032;-70
2023/09/11 03:25:45;;;;;;;7.97;2.55;;;;;;;14.60;100.00;101490.47;5068648;28;20067;-71
2023/09/11 03:28:10;;;;;;;7.28;3.03;;;;;;;14.39;100.00;101455.91;5060113;28;20506;-71
2023/09/11 03:30:36;;;;;;;6.60;3.05;;;;;;;13.79;100.00;101422.06;5053398;28;20079;-71
2023/09/11 03:33:01;;;;;;;7.68;2.88;;;;;;;14.58;100.00;101513.53;5071206;28;20031;-72
2023/09/11 03:35:27;;;;;;;8.88;2.63;;;;;;;14.63;100.00;101477.63;5071275;28;20073;-73
2023/09/11 03:37:52;;;;;;;8.38;3.30;;;;;;;14.19;100.00;101431.53;5075712;28;20035;-71
2023/09/11 03:40:20;;;;;;;6.72;3.33;;;;;;;13.85;100.00;101405.75;5073075;28;20125;-74
2023/09/11 03:42:45;;;;;;;9.07;3.42;;;;;;;14.38;100.00;101509.69;5085239;28;20116;-73
2023/09/11 03:45:11;;;;;;;13.48;3.95;;;;;;;14.20;100.00;101479.28;5065814;28;20127;-74
2023/09/11 03:47:36;;;;;;;7.55;3.53;;;;;;;14.16;100.00;101531.38;5050745;28;20120;-73
2023/09/11 03:50:04;;;;;;;8.73;3.63;;;;;;;14.32;100.00;101525.16;5051365;28;20029;-75
2023/09/11 03:52:29;;;;;;;6.80;3.60;;;;;;;14.26;100.00;101476.63;5051704;28;20032;-78
2023/09/11 03:54:55;;;;;;;10.93;4.03;;;;;;;13.71;100.00;101463.94;5053806;28;20422;-71
2023/09/11 03:57:20;;;;;;;7.00;3.97;;;;;;;13.69;100.00;101488.69;5062060;28;20097;-73
2023/09/11 03:59:45;;;;;;;8.27;3.65;;;;;;;14.17;100.00;101543.28;5074238;28;20125;-78
2023/09/11 04:02:11;;;;;;;8.88;3.72;;;;;;;14.22;100.00;101493.72;5083888;28;20032;-75
2023/09/11 04:04:36;;;;;;;7.57;3.83;;;;;;;14.24;100.00;101521.84;5059699;28;20033;-73
2023/09/11 04:07:02;;;;;;;10.68;3.65;;;;;;;14.12;100.00;101545.09;5050752;28;20036;-72
2023/09/11 04:09:30;;;;;;;8.32;3.90;;;;;;;14.18;100.00;101502.31;5066561;28;20113;-76
2023/09/11 04:11:56;;;;;;;8.02;3.63;;;;;;;13.96;100.00;101457.56;5071144;28;20025;-75
2023/09/11 04:14:21;;;;;;;8.68;4.00;;;;;;;14.61;100.00;101574.06;5070961;28;20029;-75
2023/09/11 04:16:47;;;;;;;9.63;4.15;;;;;;;14.16;100.00;101513.47;5070079;28;20098;-71
2023/09/11 04:19:12;;;;;;;11.82;4.00;;;;;;;14.14;100.00;101512.66;5070561;28;20410;-73
2023/09/11 04:21:37;;;;;;;11.20;4.28;;;;;;;14.12;100.00;101501.59;5070377;28;20115;-73
2023/09/11 04:24:03;;;;;;;13.43;4.70;;;;;;;14.25;100.00;101574.69;5072013;28;20069;-73
2023/09/11 04:26:29;;;;;;;17.73;4.90;;;;;;;14.22;100.00;101554.28;5073817;28;20039;-72
2023/09/11 04:28:55;;;;;;;22.33;6.50;;;;;;;14.47;100.00;101568.38;5074120;28;20492;-73
2023/09/11 04:31:20;;;;;;;9.50;4.88;;;;;;;14.10;100.00;101495.69;5074138;28;20119;-72
2023/09/11 04:33:46;;;;;;;12.38;4.68;;;;;;;14.53;100.00;101555.44;5073434;28;20498;-78
2023/09/11 04:36:11;;;;;;;15.52;4.70;;;;;;;14.32;100.00;101485.03;5075506;28;20127;-75
2023/09/11 04:38:37;;;;;;;13.13;4.97;;;;;;;14.76;100.00;101543.91;5057862;28;20033;-73
2023/09/11 04:41:02;;;;;;;11.38;4.50;;;;;;;14.80;100.00;101538.72;5057117;28;20127;-74
2023/09/11 04:43:27;;;;;;;13.02;4.50;;;;;;;15.58;100.00;101514.78;5075179;28;20466;-74
2023/09/11 04:45:53;;;;;;;28.65;5.95;;;;;;;14.86;100.00;101472.84;5075028;28;20041;-76
2023/09/11 04:48:18;;;;;;;8.45;4.65;;;;;;;14.88;100.00;101531.69;5056234;28;20028;-75
2023/09/11 04:50:44;;;;;;;9.60;4.75;;;;;;;14.55;100.00;101475.22;5073714;28;20037;-75
2023/09/11 04:53:09;;;;;;;13.10;4.97;;;;;;;15.03;100.00;101519.44;5056940;28;20039;-74
2023/09/11 04:55:35;;;;;;;8.88;5.20;;;;;;;15.18;100.00;101510.56;5054832;28;20040;-76
2023/09/11 04:58:00;;;;;;;18.10;5.78;;;;;;;15.32;100.00;101536.72;5075014;28;20024;-76
2023/09/11 05:00:26;;;;;;;11.95;5.00;;;;;;;15.35;100.00;101522.13;5074325;28;20035;-74
2023/09/11 05:02:52;;;;;;;9.23;4.00;;;;;;;14.97;100.00;101458.09;5074171;28;20158;-74
2023/09/11 05:05:18;;;;;;;6.07;3.55;;;;;;;15.27;100.00;101469.38;5074237;28;20485;-75
2023/09/11 05:07:43;;;;;;;15.20;3.85;;;;;;;16.10;100.00;101539.16;5056788;28;20115;-75
2023/09/11 05:10:09;;;;;;;9.35;3.33;;;;;;;15.92;100.00;101532.78;5056764;28;20036;-77
2023/09/11 05:12:35;;;;;;;8.38;3.25;;;;;;;16.31;100.00;101523.19;5057151;28;20426;-75
2023/09/11 05:15:00;;;;;;;13.13;3.08;;;;;;;16.72;100.00;101517.78;5057151;28;20024;-76
2023/09/11 05:17:26;;;;;;;9.65;3.47;;;;;;;16.78;100.00;101366.03;5074313;28;20032;-76
2023/09/11 05:19:51;;;;;;;11.13;3.40;;;;;;;17.52;100.00;101421.94;5074705;28;20039;-75
2023/09/11 05:22:17;;;;;;;11.32;3.17;;;;;;;17.69;100.00;101339.91;5056679;28;20029;-75
2023/09/11 05:24:42;;;;;;;8.13;3.38;;;;;;;18.03;100.00;101324.91;5053432;28;20060;-76
2023/09/11 05:27:07;;;;;;;7.40;2.80;;;;;;;18.19;100.00;101236.75;5054173;28;20628;-74
2023/09/11 05:29:33;;;;;;;10.10;3.03;;;;;;;17.91;100.00;101173.53;5054600;28;20036;-75
2023/09/11 05:31:58;;;;;;;12.27;3.75;;;;;;;18.40;100.00;101188.69;5054747;28;20462;-74
2023/09/11 05:34:24;;;;;;;7.50;3.08;;;;;;;19.18;100.00;101215.47;5053183;28;20080;-74
2023/09/11 05:36:49;;;;;;;8.20;2.90;;;;;;;19.53;100.00;101173.50;5054369;28;20086;-75
2023/09/11 05:39:14;;;;;;;12.60;2.90;;;;;;;19.46;100.00;101150.63;5052707;28;20025;-75
2023/09/11 05:41:40;;;;;;;6.88;3.10;;;;;;;19.77;100.00;101141.41;5054602;28;20058;-75
2023/09/11 05:44:05;;;;;;;6.32;2.47;;;;;;;20.07;100.00;101107.25;5054391;28;20025;-76
2023/09/11 05:46:31;;;;;;;7.38;2.30;;;;;;;20.36;100.00;101089.44;5054210;28;20033;-75
2023/09/11 05:48:56;;;;;;;8.93;3.05;;;;;;;20.12;100.00;101094.97;5054256;28;20159;-75
2023/09/11 05:51:21;;;;;;;8.50;2.92;;;;;;;20.56;100.00;101097.03;5054086;28;20056;-76
2023/09/11 05:53:47;;;;;;;9.27;2.00;;;;;;;20.82;100.00;101089.69;5053890;28;20507;-75
2023/09/11 05:56:12;;;;;;;9.88;2.22;;;;;;;20.67;100.00;101081.81;5054336;28;20033;-75
2023/09/11 05:58:38;;;;;;;4.32;1.88;;;;;;;20.85;100.00;101086.94;5053612;28;20032;-76
2023/09/11 06:01:05;;;;;;;8.65;2.22;;;;;;;20.45;100.00;101109.66;5052516;28;20041;-76
2023/09/11 06:03:31;;;;;;;10.63;2.50;;;;;;;20.92;100.00;101041.75;5053786;28;20063;-73
2023/09/11 06:05:58;;;;;;;10.55;2.17;;;;;;;21.16;100.00;100986.94;5054192;28;20029;-77
2023/09/11 06:08:23;;;;;;;5.22;2.00;;;;;;;21.61;100.00;101035.28;5054105;28;20115;-76
2023/09/11 06:10:49;;;;;;;6.43;1.77;;;;;;;21.55;100.00;101110.72;5053865;28;20064;-78
2023/09/11 06:13:14;;;;;;;3.25;1.27;;;;;;;21.72;100.00;101108.03;5054079;28;20406;-75
2023/09/11 06:15:39;;;;;;;5.72;1.55;;;;;;;22.18;100.00;101085.56;5053417;28;20021;-77
2023/09/11 06:18:05;;;;;;;4.43;1.40;;;;;;;21.86;100.00;101099.53;5053687;28;20503;-77
2023/09/11 06:20:31;;;;;;;3.67;1.50;;;;;;;22.55;100.00;101099.78;5054360;28;20033;-76
2023/09/11 06:22:56;;;;;;;5.20;1.60;;;;;;;22.19;100.00;101058.72;5053734;28;20581;-77
2023/09/11 06:25:22;;;;;;;2.20;1.20;;;;;;;22.51;100.00;101101.72;5052191;28;20049;-77
2023/09/11 06:27:49;;;;;;;4.57;1.30;;;;;;;22.24;100.00;101124.88;5052300;28;20029;-76
2023/09/11 06:30:14;;;;;;;5.35;1.38;;;;;;;21.84;100.00;101031.44;5052360;28;20033;-76
2023/09/11 06:32:40;;;;;;;3.72;1.38;;;;;;;22.94;100.00;101093.06;5051480;28;20384;-76
2023/09/11 06:35:06;;;;;;;2.35;1.15;;;;;;;22.54;100.00;101101.53;5052627;28;20105;-77
2023/09/11 06:37:31;;;;;;;2.20;1.23;;;;;;;22.99;100.00;101100.56;5053466;28;20021;-76
2023/09/11 06:39:57;;;;;;;2.63;1.27;;;;;;;22.65;100.00;101129.44;5053064;28;20506;-80
2023/09/11 06:42:24;;;;;;;3.40;1.13;;;;;;;23.05;100.00;101102.78;5053499;28;20104;-77
2023/09/11 06:44:51;;;;;;;3.10;1.20;;;;;;;22.38;100.00;101137.88;5055760;28;20033;-76
2023/09/11 06:47:17;;;;;;;6.43;1.00;;;;;;;23.52;100.00;101105.88;5054410;28;20025;-73
2023/09/11 06:49:42;;;;;;;5.90;1.70;;;;;;;23.52;100.00;101105.88;5051746;28;20029;-75
2023/09/11 06:52:07;;;;;;;4.82;1.40;;;;;;;23.11;100.00;101063.47;5053003;28;20621;-75
2023/09/11 06:54:33;;;;;;;3.22;1.10;;;;;;;22.87;100.00;101135.03;5053508;28;20024;-77
2023/09/11 06:56:58;;;;;;;3.47;1.10;;;;;;;22.54;100.00;101142.19;5052061;28;20033;-74
2023/09/11 06:59:24;;;;;;;4.32;1.10;;;;;;;23.75;100.00;101061.06;5053028;28;20535;-76
2023/09/11 07:01:50;;;;;;;3.90;1.05;;;;;;;23.87;100.00;101083.66;5052546;28;20033;-74
2023/09/11 07:04:17;;;;;;;2.72;0.88;;;;;;;23.35;100.00;101082.75;5051819;28;20128;-77
2023/09/11 07:06:42;;;;;;;2.50;0.73;;;;;;;23.42;100.00;100984.50;5053002;28;20032;-77
2023/09/11 07:09:08;;;;;;;2.03;0.80;;;;;;;23.44;100.00;101035.41;5052943;28;20032;-78
2023/09/11 07:11:34;;;;;;;3.42;0.80;;;;;;;23.59;100.00;100992.84;5053577;28;20021;-78
2023/09/11 07:13:59;;;;;;;3.00;1.10;;;;;;;23.80;100.00;101046.03;5073371;28;20063;-75
2023/09/11 07:16:25;;;;;;;3.65;1.00;;;;;;;24.16;100.00;101058.38;5071194;28;20036;-76
2023/09/11 07:18:51;;;;;;;2.35;0.90;;;;;;;24.73;100.00;101017.16;5067413;28;20135;-76
2023/09/11 07:21:16;;;;;;;2.53;0.90;;;;;;;23.25;100.00;101019.31;5052507;28;20427;-79
2023/09/11 07:23:42;;;;;;;2.63;0.90;;;;;;;24.48;100.00;101038.81;5054138;28;20056;-76
2023/09/11 07:26:07;;;;;;;1.35;0.63;;;;;;;24.08;100.00;101053.69;5035725;28;20036;-77
2023/09/11 07:28:51;;;;;;;2.97;0.80;;;;;;;24.07;100.00;100976.63;5034950;28;20036;-78
2023/09/11 07:31:16;;;;;;;2.67;0.70;;;;;;;24.41;100.00;100958.72;5052163;28;20024;-77
2023/09/11 07:33:42;;;;;;;1.30;0.60;;;;;;;24.28;100.00;101017.72;5051391;28;20403;-76
2023/09/11 07:36:07;;;;;;;2.25;0.73;;;;;;;23.68;100.00;100994.03;5051979;28;20115;-74
2023/09/11 07:38:33;;;;;;;2.38;0.70;;;;;;;24.33;100.00;101010.41;5052236;28;20415;-76
2023/09/11 07:40:58;;;;;;;2.25;0.75;;;;;;;24.84;100.00;100991.22;5051984;28;20087;-75
2023/09/11 07:43:23;;;;;;;1.92;0.63;;;;;;;24.63;100.00;100997.91;5044888;28;20032;-76
2023/09/11 07:45:49;;;;;;;2.80;0.90;;;;;;;25.18;100.00;100984.44;5070829;28;20056;-76
2023/09/11 07:48:14;;;;;;;3.13;0.70;;;;;;;24.75;100.00;100945.03;5071428;28;20039;-76
2023/09/11 07:50:39;;;;;;;7.97;1.20;;;;;;;24.81;100.00;101009.66;5071428;28;20503;-76
2023/09/11 07:53:05;;;;;;;12.98;4.35;;;;;;;25.50;100.00;100960.34;5071075;28;20103;-76
2023/09/11 07:55:35;;;;;;;4.50;0.80;;;;;;;25.85;100.00;100962.91;5053228;28;20474;-76
2023/09/11 07:58:01;;;;;;;3.97;0.82;;;;;;;25.78;100.00;100944.31;5053489;28;20032;-75
2023/09/11 08:00:30;;;;;;;2.85;0.80;;;;;;;24.41;100.00;100932.72;5071122;28;20423;-75
2023/09/11 08:02:56;;;;;;;3.53;0.80;;;;;;;24.32;100.00;101000.97;5070889;28;20115;-74
2023/09/11 08:05:21;;;;;;;4.78;0.50;;;;;;;24.75;100.00;100974.50;5070085;28;20147;-74
2023/09/11 08:07:47;;;;;;;7.50;2.65;;;;;;;25.30;100.00;100952.28;5070799;28;20024;-73
2023/09/11 08:10:14;;;;;;;3.03;0.90;;;;;;;25.67;100.00;100868.69;5071745;28;20024;-76
2023/09/11 08:12:39;;;;;;;2.15;0.60;;;;;;;24.87;100.00;100963.22;5071586;28;20032;-75
2023/09/11 08:15:05;;;;;;;5.32;1.00;;;;;;;25.31;100.00;100949.59;5070855;28;20029;-77
2023/09/11 08:17:31;;;;;;;4.47;0.70;;;;;;;26.17;100.00;100845.72;5070485;28;20036;-77
2023/09/11 08:19:57;;;;;;;5.43;0.77;;;;;;;26.00;100.00;100856.63;5071583;28;20050;-77
2023/09/11 08:22:22;;;;;;;4.60;0.50;;;;;;;26.13;100.00;100901.69;5071492;28;20032;-75
2023/09/11 08:24:48;;;;;;;4.25;0.75;;;;;;;25.17;100.00;100946.31;5063168;28;20119;-74
2023/09/11 08:27:13;;;;;;;3.83;1.33;;;;;;;25.99;100.00;100824.50;5031438;28;20036;-77
2023/09/11 08:29:38;;;;;;;5.32;2.45;;;;;;;25.72;100.00;100811.88;5031378;28;20033;-76
2023/09/11 08:32:04;;;;;;;1.60;0.60;;;;;;;26.17;100.00;100862.22;5032035;28;20029;-73
2023/09/11 08:34:29;;;;;;;3.83;0.80;;;;;;;25.51;100.00;100839.53;5063418;28;20036;-76
2023/09/11 08:36:55;;;;;;;3.47;0.75;;;;;;;25.72;100.00;100826.66;5062876;28;20057;-74
2023/09/11 08:39:20;;;;;;;2.30;1.10;;;;;;;25.59;100.00;100850.22;5046661;28;20034;-74
2023/09/11 08:41:46;;;;;;;2.40;0.63;;;;;;;26.87;100.00;100847.00;5030952;28;20076;-74
2023/09/11 08:44:12;;;;;;;3.10;1.13;;;;;;;26.25;100.00;100825.09;5030516;28;20026;-75
2023/09/11 08:46:45;;;;;;;3.05;0.60;;;;;;;26.44;100.00;100786.97;5031263;28;20029;-75
2023/09/11 08:49:11;;;;;;;1.90;0.70;;;;;;;26.01;100.00;100843.47;5030091;28;20021;-75
2023/09/11 08:51:50;;;;;;;2.42;0.73;;;;;;;26.43;100.00;100865.38;5034371;28;20044;-77
2023/09/11 08:54:17;;;;;;;2.63;0.65;;;;;;;26.03;100.00;100869.44;5030374;28;20127;-75
2023/09/11 08:56:43;;;;;;;2.72;0.68;;;;;;;27.08;100.00;100839.16;5031193;28;20087;-73
2023/09/11 08:59:15;;;;;;;9.10;1.05;;;;;;;27.51;100.00;100805.09;5047029;28;20084;-77
2023/09/11 09:01:41;;;;;;;0.73;0.50;;;;;;;26.27;100.00;100863.16;5063290;28;20083;-76
2023/09/11 09:04:08;;;;;;;3.63;0.60;;;;;;;26.09;100.00;100863.75;5031978;28;20046;-76
2023/09/11 09:06:35;;;;;;;1.88;0.60;;;;;;;27.38;100.00;100768.72;5032959;28;20040;-76
2023/09/11 09:09:01;;;;;;;1.63;0.55;;;;;;;27.99;100.00;100801.69;5031799;28;20041;-75
2023/09/11 09:11:26;;;;;;;1.63;0.65;;;;;;;27.65;100.00;100816.03;5031186;28;20045;-76
2023/09/11 09:13:52;;;;;;;3.35;0.50;;;;;;;26.75;100.00;100785.34;5048351;28;20037;-76
2023/09/11 09:16:17;;;;;;;3.15;0.70;;;;;;;26.03;100.00;100791.22;5050729;28;20475;-77
2023/09/11 09:18:49;;;;;;;3.22;0.50;;;;;;;26.39;100.00;100788.31;5035057;28;20420;-75
2023/09/11 09:21:20;;;;;;;1.38;0.60;;;;;;;27.35;100.00;100801.16;5034581;28;20029;-72
2023/09/11 09:23:45;;;;;;;2.83;0.70;;;;;;;27.37;100.00;100720.03;5040818;28;20128;-73
2023/09/11 09:26:11;;;;;;;2.40;0.80;;;;;;;26.20;100.00;100736.81;5072070;28;20072;-76
2023/09/11 09:28:44;;;;;;;1.92;0.47;;;;;;;27.18;100.00;100777.38;5073558;28;20036;-76
2023/09/11 09:31:12;;;;;;;2.45;0.50;;;;;;;27.05;100.00;100758.47;5073992;28;20039;-75
2023/09/11 09:33:38;;;;;;;2.20;0.60;;;;;;;26.85;100.00;100718.38;5072956;28;20102;-74
2023/09/11 09:36:06;;;;;;;1.83;0.60;;;;;;;27.75;100.00;100742.84;5072616;28;20042;-75
2023/09/11 09:38:32;;;;;;;2.80;0.50;;;;;;;26.81;100.00;100729.19;5073760;28;20036;-76
2023/09/11 09:40:57;;;;;;;3.13;0.52;;;;;;;27.33;100.00;100748.22;5074120;28;20567;-76
2023/09/11 09:43:23;;;;;;;2.33;0.52;;;;;;;27.61;100.00;100764.13;5071963;28;20025;-73
2023/09/11 09:45:49;;;;;;;3.20;0.60;;;;;;;27.20;100.00;100771.06;5064086;28;20425;-72
2023/09/11 09:48:19;;;;;;;1.70;0.40;;;;;;;27.25;100.00;100775.91;5076886;28;20024;-78
2023/09/11 09:50:54;;;;;;;2.30;0.60;;;;;;;27.66;100.00;100700.03;5074170;28;20127;-71
2023/09/11 09:53:33;;;;;;;3.25;0.57;;;;;;;27.83;100.00;100683.69;5072585;28;20410;-73
2023/09/11 09:56:03;;;;;;;1.85;0.47;;;;;;;27.65;100.00;100740.22;5072690;28;20056;-73
2023/09/11 09:58:30;;;;;;;1.20;0.60;;;;;;;28.05;100.00;100693.94;5054665;28;20555;-75
2023/09/11 10:01:08;;;;;;;3.63;0.60;;;;;;;28.66;100.00;100673.50;5073008;28;20517;-74
2023/09/11 10:03:51;;;;;;;2.67;0.82;;;;;;;28.95;100.00;100721.44;5055096;28;20509;-75
2023/09/11 10:06:26;;;;;;;2.83;0.70;;;;;;;28.32;100.00;100719.41;5071970;28;20110;-73
2023/09/11 10:09:19;;;;;;;3.55;0.63;;;;;;;27.58;100.00;100780.06;5070562;28;20036;-74
2023/09/11 10:11:44;;;;;;;3.95;0.77;;;;;;;27.07;100.00;100723.44;5070301;28;20056;-74
2023/09/11 10:14:10;;;;;;;2.58;0.70;;;;;;;27.85;100.00;100652.19;5072565;28;20120;-75
2023/09/11 10:16:36;;;;;;;2.22;0.65;;;;;;;27.78;100.00;100764.31;5072393;28;20059;-73
2023/09/11 10:19:03;;;;;;;3.03;0.60;;;;;;;27.91;100.00;100743.19;5071854;28;20068;-73
2023/09/11 10:21:29;;;;;;;2.28;0.63;;;;;;;27.49;100.00;100703.31;5070977;28;20092;-73
2023/09/11 10:23:55;;;;;;;2.33;0.57;;;;;;;27.91;100.00;100725.66;5072744;28;20060;-74
2023/09/11 10:26:25;;;;;;;1.65;0.63;;;;;;;28.08;100.00;100669.28;5070537;28;20032;-73
2023/09/11 10:28:57;;;;;;;2.33;0.50;;;;;;;28.21;100.00;100602.63;5071889;28;20033;-73
2023/09/11 10:31:32;;;;;;;3.72;0.80;;;;;;;27.96;100.00;100613.69;5073280;28;20021;-74
2023/09/11 10:34:01;;;;;;;3.03;0.70;;;;;;;27.76;100.00;100744.50;5073044;28;20029;-74
2023/09/11 10:36:31;;;;;;;4.07;0.70;;;;;;;28.22;100.00;100708.13;5054362;28;20029;-74
2023/09/11 10:39:00;;;;;;;2.65;0.55;;;;;;;28.62;100.00;100653.84;5054091;28;20032;-74
2023/09/11 10:41:26;;;;;;;1.65;0.60;;;;;;;29.02;100.00;100691.06;5071385;28;20041;-75
2023/09/11 10:43:52;;;;;;;2.17;0.55;;;;;;;29.08;100.00;100687.03;5072623;28;20055;-74
2023/09/11 10:46:39;;;;;;;2.65;0.63;;;;;;;28.27;100.00;100726.84;5072411;28;20068;-74
2023/09/11 10:49:18;;;;;;;3.38;0.70;;;;;;;28.20;100.00;100662.97;5072185;28;20516;-75
2023/09/11 10:51:48;;;;;;;2.60;0.70;;;;;;;28.26;100.00;100665.84;5072282;28;20035;-74
2023/09/11 10:54:21;;;;;;;3.53;0.55;;;;;;;28.45;100.00;100709.50;5070929;28;20024;-75
2023/09/11 10:56:49;;;;;;;1.15;0.50;;;;;;;27.64;100.00;100745.56;5071664;28;20032;-74
2023/09/11 10:59:16;;;;;;;1.73;0.50;;;;;;;27.98;100.00;100732.06;5072406;28;20082;-74
2023/09/11 11:01:44;;;;;;;4.95;0.80;;;;;;;28.67;100.00;100690.06;5072523;28;20120;-74
2023/09/11 11:04:14;;;;;;;2.03;0.50;;;;;;;28.38;100.00;100642.97;5070880;28;20074;-74
2023/09/11 11:06:44;;;;;;;1.88;0.50;;;;;;;28.95;100.00;100647.25;5054028;28;20415;-74
2023/09/11 11:09:28;;;;;;;1.05;0.40;;;;;;;28.81;100.00;100677.34;5070752;28;20037;-75
2023/09/11 11:12:06;;;;;;;3.53;0.70;;;;;;;28.46;100.00;100605.63;5070653;28;20029;-74
2023/09/11 11:14:31;;;;;;;2.65;0.60;;;;;;;29.44;100.00;100646.06;5071867;28;20028;-75
2023/09/11 11:17:01;;;;;;;2.22;0.60;;;;;;;29.28;100.00;100665.06;5071711;28;20078;-75